Time,TemperatureF,DewpointF,PressureIn,WindDirection,WindDirectionDegrees,WindSpeedMPH,WindSpeedGustMPH,Humidity,HourlyPrecipIn,Conditions,Clouds,dailyrainin,SoftwareType,DateUTC
2013-03-18 00:10:00,68.3,-99.9,29.99,SSW,213,0.0,-999.0,0,-99.99,,,0.00,weatherlink.com 1.10,2013-03-18 04:10:00,
2013-03-18 00:55:00,67.6,-99.9,29.98,SSW,213,0.0,-999.0,0,-99.99,,,0.00,weatherlink.com 1.10,2013-03-18 04:55:00,
2013-03-18 01:10:00,67.3,-99.9,29.97,SE,127,2.0,-999.0,0,-99.99,,,0.00,weatherlink.com 1.10,2013-03-18 05:10:00,
2013-03-18 02:26:00,67.3,-99.9,29.97,SW,217,3.0,-999.0,0,-99.99,,,0.00,weatherlink.com 1.10,2013-03-18 06:26:00,
2013-03-18 02:56:00,66.9,-99.9,29.96,SSW,203,3.0,-999.0,0,-99.99,,,0.00,weatherlink.com 1.10,2013-03-18 06:56:00,
2013-03-18 03:26:00,66.0,-99.9,29.93,SSE,158,5.0,-999.0,0,-99.99,,,0.00,weatherlink.com 1.10,2013-03-18 07:26:00,
2013-03-18 03:41:00,66.9,-99.9,29.91,SSE,147,5.0,-999.0,0,-99.99,,,0.00,weatherlink.com 1.10,2013-03-18 07:41:00,
2013-03-18 03:56:00,67.1,-99.9,29.89,South,171,2.0,-999.0,0,-99.99,,,0.00,weatherlink.com 1.10,2013-03-18 07:56:00,
2013-03-18 04:11:00,67.1,-99.9,29.91,South,191,1.0,-999.0,0,-99.99,,,0.00,weatherlink.com 1.10,2013-03-18 08:11:00,
2013-03-18 04:26:00,67.1,-99.9,29.92,SW,219,3.0,-999.0,0,-99.99,,,0.00,weatherlink.com 1.10,2013-03-18 08:26:00,
2013-03-18 04:41:00,66.6,-99.9,29.92,SSW,202,1.0,-999.0,0,-99.99,,,0.00,weatherlink.com 1.10,2013-03-18 08:41:00,
2013-03-18 05:12:00,66.3,-99.9,29.93,SW,225,3.0,-999.0,0,-99.99,,,0.00,weatherlink.com 1.10,2013-03-18 09:12:00,
2013-03-18 05:27:00,66.4,-99.9,29.94,SW,224,3.0,-999.0,0,-99.99,,,0.00,weatherlink.com 1.10,2013-03-18 09:27:00,
2013-03-18 05:57:00,66.1,-99.9,29.94,SW,234,1.0,-999.0,0,-99.99,,,0.00,weatherlink.com 1.10,2013-03-18 09:57:00,
2013-03-18 06:12:00,66.1,-99.9,29.96,WSW,258,3.0,-999.0,0,-99.99,,,0.00,weatherlink.com 1.10,2013-03-18 10:12:00,
2013-03-18 06:27:00,66.0,-99.9,29.96,WSW,258,0.0,-999.0,0,-99.99,,,0.00,weatherlink.com 1.10,2013-03-18 10:27:00,
2013-03-18 06:42:00,65.6,-99.9,29.95,WSW,258,0.0,-999.0,0,-99.99,,,0.00,weatherlink.com 1.10,2013-03-18 10:42:00,
2013-03-18 06:57:00,65.8,-99.9,29.96,WSW,251,0.0,-999.0,0,-99.99,,,0.00,weatherlink.com 1.10,2013-03-18 10:57:00,
2013-03-18 07:13:00,65.6,-99.9,29.96,WSW,251,0.0,-999.0,0,-99.99,,,0.00,weatherlink.com 1.10,2013-03-18 11:13:00,
2013-03-18 07:28:00,65.6,-99.9,29.96,WSW,251,0.0,-999.0,0,-99.99,,,0.00,weatherlink.com 1.10,2013-03-18 11:28:00,
2013-03-18 07:43:00,65.5,-99.9,29.96,WSW,251,0.0,-999.0,0,-99.99,,,0.00,weatherlink.com 1.10,2013-03-18 11:43:00,
2013-03-18 07:58:00,65.6,-99.9,29.96,SSW,207,0.0,-999.0,0,-99.99,,,0.00,weatherlink.com 1.10,2013-03-18 11:58:00,
2013-03-18 08:13:00,66.1,-99.9,29.96,SSW,196,3.0,-999.0,0,-99.99,,,0.00,weatherlink.com 1.10,2013-03-18 12:13:00,
2013-03-18 08:28:00,66.3,-99.9,29.96,SSW,213,2.0,-999.0,0,-99.99,,,0.00,weatherlink.com 1.10,2013-03-18 12:28:00,
2013-03-18 08:43:00,66.6,-99.9,29.97,SSW,206,4.0,-999.0,0,-99.99,,,0.00,weatherlink.com 1.10,2013-03-18 12:43:00,
2013-03-18 08:58:00,67.3,-99.9,29.97,SW,231,3.0,-999.0,0,-99.99,,,0.00,weatherlink.com 1.10,2013-03-18 12:58:00,
2013-03-18 09:28:00,69.3,-99.9,29.97,SSW,197,2.0,-999.0,0,-99.99,,,0.00,weatherlink.com 1.10,2013-03-18 13:28:00,
2013-03-18 09:43:00,69.6,-99.9,29.97,SW,214,3.0,-999.0,0,-99.99,,,0.00,weatherlink.com 1.10,2013-03-18 13:43:00,
2013-03-18 10:44:00,71.8,-8.0,29.97,SSE,157,5.0,-999.0,4,-99.99,,,0.00,weatherlink.com 1.10,2013-03-18 14:44:00,
2013-03-18 10:59:00,72.8,8.0,29.96,South,178,9.0,-999.0,8,-99.99,,,0.00,weatherlink.com 1.10,2013-03-18 14:59:00,
2013-03-18 11:14:00,74.6,31.0,29.96,South,181,3.0,-999.0,20,-99.99,,,0.00,weatherlink.com 1.10,2013-03-18 15:14:00,
2013-03-18 11:29:00,75.6,38.0,29.96,West,270,3.0,-999.0,26,-99.99,,,0.00,weatherlink.com 1.10,2013-03-18 15:29:00,
2013-03-18 11:44:00,75.8,39.0,29.95,South,189,3.0,-999.0,27,-99.99,,,0.00,weatherlink.com 1.10,2013-03-18 15:44:00,
2013-03-18 11:59:00,76.0,40.0,29.95,South,183,0.0,-999.0,27,-99.99,,,0.00,weatherlink.com 1.10,2013-03-18 15:59:00,
2013-03-18 12:14:00,75.8,36.0,29.95,ESE,117,0.0,-999.0,24,-99.99,,,0.00,weatherlink.com 1.10,2013-03-18 16:14:00,
2013-03-18 12:29:00,76.3,39.0,29.95,South,170,0.0,-999.0,26,-99.99,,,0.00,weatherlink.com 1.10,2013-03-18 16:29:00,
2013-03-18 12:44:00,76.8,46.0,29.94,SSW,198,3.0,-999.0,34,-99.99,,,0.00,weatherlink.com 1.10,2013-03-18 16:44:00,
2013-03-18 12:59:00,76.3,41.0,29.94,SSW,201,4.0,-999.0,28,-99.99,,,0.00,weatherlink.com 1.10,2013-03-18 16:59:00,
2013-03-18 13:14:00,76.3,42.0,29.93,SE,139,0.0,-999.0,29,-99.99,,,0.00,weatherlink.com 1.10,2013-03-18 17:14:00,
2013-03-18 13:44:00,75.6,32.0,29.93,SSE,150,3.0,-999.0,20,-99.99,,,0.00,weatherlink.com 1.10,2013-03-18 17:44:00,
2013-03-18 14:00:00,74.7,22.0,29.92,East,86,4.0,-999.0,14,-99.99,,,0.00,weatherlink.com 1.10,2013-03-18 18:00:00,
2013-03-18 14:15:00,74.6,17.0,29.91,ESE,112,1.0,-999.0,11,-99.99,,,0.00,weatherlink.com 1.10,2013-03-18 18:15:00,
2013-03-18 14:45:00,75.8,28.0,29.91,SE,131,0.0,-999.0,17,-99.99,,,0.00,weatherlink.com 1.10,2013-03-18 18:45:00,
2013-03-18 15:15:00,75.8,38.0,29.89,SW,231,5.0,-999.0,26,-99.99,,,0.00,weatherlink.com 1.10,2013-03-18 19:15:00,
2013-03-18 15:30:00,75.6,35.0,29.88,WSW,238,5.0,-999.0,23,-99.99,,,0.00,weatherlink.com 1.10,2013-03-18 19:30:00,
2013-03-18 15:45:00,75.6,35.0,29.88,WSW,238,5.0,-999.0,23,-99.99,,,0.00,weatherlink.com 1.10,2013-03-18 19:45:00,
2013-03-18 16:00:00,76.0,39.0,29.87,SW,232,4.0,-999.0,26,-99.99,,,0.00,weatherlink.com 1.10,2013-03-18 20:00:00,
2013-03-18 16:30:00,76.0,41.0,29.85,SW,235,3.0,-999.0,28,-99.99,,,0.00,weatherlink.com 1.10,2013-03-18 20:30:00,
2013-03-18 16:45:00,76.3,40.0,29.85,SSW,206,2.0,-999.0,27,-99.99,,,0.00,weatherlink.com 1.10,2013-03-18 20:45:00,
2013-03-18 17:00:00,75.1,24.0,29.84,ENE,75,0.0,-999.0,15,-99.99,,,0.00,weatherlink.com 1.10,2013-03-18 21:00:00,
2013-03-18 17:16:00,74.4,14.0,29.85,East,86,0.0,-999.0,10,-99.99,,,0.00,weatherlink.com 1.10,2013-03-18 21:16:00,
2013-03-18 17:31:00,74.0,6.0,29.86,SE,124,2.0,-999.0,7,-99.99,,,0.00,weatherlink.com 1.10,2013-03-18 21:31:00,
2013-03-18 17:46:00,73.9,2.0,29.86,SE,139,1.0,-999.0,6,-99.99,,,0.00,weatherlink.com 1.10,2013-03-18 21:46:00,
2013-03-18 18:31:00,73.7,-2.0,29.87,SW,215,9.0,-999.0,5,-99.99,,,0.00,weatherlink.com 1.10,2013-03-18 22:31:00,
2013-03-18 18:46:00,74.2,12.0,29.88,SW,236,6.0,-999.0,9,-99.99,,,0.00,weatherlink.com 1.10,2013-03-18 22:46:00,
2013-03-18 19:16:00,73.0,-21.0,29.87,SSW,209,0.0,-999.0,2,-99.99,,,0.00,weatherlink.com 1.10,2013-03-18 23:16:00,
2013-03-18 19:31:00,72.8,-21.0,29.87,SW,226,3.0,-999.0,2,-99.99,,,0.00,weatherlink.com 1.10,2013-03-18 23:31:00,
2013-03-18 20:01:00,72.8,-13.0,29.86,SSW,213,4.0,-999.0,3,-99.99,,,0.00,weatherlink.com 1.10,2013-03-19 00:01:00,
2013-03-18 20:47:00,71.8,-99.9,29.86,SSW,197,4.0,-999.0,0,-99.99,,,0.00,weatherlink.com 1.10,2013-03-19 00:47:00,
2013-03-18 21:02:00,71.3,-99.9,29.86,WSW,238,8.0,-999.0,0,-99.99,,,0.00,weatherlink.com 1.10,2013-03-19 01:02:00,
2013-03-18 21:17:00,70.6,-99.9,29.89,SW,236,9.0,-999.0,0,-99.99,,,0.00,weatherlink.com 1.10,2013-03-19 01:17:00,
2013-03-18 21:32:00,69.8,-99.9,29.89,SW,224,5.0,-999.0,0,-99.99,,,0.00,weatherlink.com 1.10,2013-03-19 01:32:00,
2013-03-18 22:02:00,68.8,-99.9,29.86,SSW,210,5.0,-999.0,0,-99.99,,,0.00,weatherlink.com 1.10,2013-03-19 02:02:00,
2013-03-18 22:17:00,68.3,-99.9,29.87,WSW,246,3.0,-999.0,0,-99.99,,,0.00,weatherlink.com 1.10,2013-03-19 02:17:00,
2013-03-18 22:47:00,67.9,-99.9,29.86,SW,221,8.0,-999.0,0,-99.99,,,0.00,weatherlink.com 1.10,2013-03-19 02:47:00,
2013-03-18 23:17:00,67.9,-99.9,29.85,SSW,207,10.0,-999.0,0,-99.99,,,0.00,weatherlink.com 1.10,2013-03-19 03:17:00,
2013-03-18 23:47:00,68.1,-99.9,29.86,WSW,243,4.0,-999.0,0,-99.99,,,0.00,weatherlink.com 1.10,2013-03-19 03:47:00,